createdAt,value
2018-02-05T00:00:06.306Z,20.20
2018-02-05T00:02:35.417Z,20.37
2018-02-05T00:05:04.711Z,20.40
2018-02-05T00:07:32.312Z,18.90
2018-02-05T00:10:03.832Z,19.23
2018-02-05T00:12:31.833Z,20.70
2018-02-05T00:14:59.620Z,20.90
2018-02-05T00:17:29.480Z,21.77
2018-02-05T00:19:57.808Z,19.07
2018-02-05T00:22:25.419Z,20.63
2018-02-05T00:24:57.457Z,19.67
2018-02-05T00:27:28.960Z,21.23
2018-02-05T00:29:56.573Z,19.20
2018-02-05T00:32:24.911Z,19.10
2018-02-05T00:34:53.108Z,19.93
2018-02-05T00:37:22.061Z,21.83
2018-02-05T00:39:49.725Z,20.73
2018-02-05T00:42:18.089Z,20.27
2018-02-05T00:44:48.452Z,18.97
2018-02-05T00:47:20.454Z,19.60
2018-02-05T00:49:48.039Z,21.07
2018-02-05T00:52:20.590Z,20.47
2018-02-05T00:54:48.739Z,20.03
2018-02-05T00:57:16.648Z,21.03
2018-02-05T00:59:45.789Z,22.40
2018-02-05T01:02:15.189Z,20.73
2018-02-05T01:04:43.505Z,21.63
2018-02-05T01:07:14.910Z,19.47
2018-02-05T01:09:43.435Z,20.50
2018-02-05T01:12:11.110Z,20.73
2018-02-05T01:14:40.203Z,21.40
2018-02-05T01:17:07.831Z,19.53
2018-02-05T01:19:35.368Z,18.77
2018-02-05T01:22:04.504Z,21.47
2018-02-05T01:24:33.284Z,19.30
2018-02-05T01:27:00.882Z,19.07
2018-02-05T01:29:28.472Z,20.67
2018-02-05T01:31:59.464Z,20.40
2018-02-05T01:34:27.011Z,22.00
2018-02-05T01:36:54.632Z,20.37
2018-02-05T01:39:25.054Z,20.60
2018-02-05T01:41:53.587Z,19.23
2018-02-05T01:44:25.955Z,20.90
2018-02-05T01:46:54.544Z,20.40
2018-02-05T01:49:22.789Z,19.50
2018-02-05T01:51:51.319Z,19.43
2018-02-05T01:54:19.789Z,19.97
2018-02-05T01:56:48.168Z,19.53
2018-02-05T01:59:15.723Z,18.00
2018-02-05T02:01:44.893Z,21.47
2018-02-05T02:04:13.251Z,19.57
2018-02-05T02:06:44.544Z,19.20
2018-02-05T02:09:12.122Z,21.00
2018-02-05T02:11:39.704Z,21.27
2018-02-05T02:14:09.070Z,17.97
2018-02-05T02:16:37.547Z,17.73
2018-02-05T02:19:05.087Z,19.73
2018-02-05T02:21:34.068Z,18.90
2018-02-05T02:24:01.621Z,20.37
2018-02-05T02:26:29.390Z,17.40
2018-02-05T02:28:56.955Z,19.30
2018-02-05T02:31:24.576Z,20.03
2018-02-05T02:33:53.365Z,18.87
2018-02-05T02:36:21.044Z,19.23
2018-02-05T02:38:49.808Z,19.30
2018-02-05T02:41:17.537Z,19.40
2018-02-05T02:43:48.372Z,18.70
2018-02-05T02:46:19.120Z,18.73
2018-02-05T02:48:47.678Z,20.13
2018-02-05T02:51:15.671Z,20.67
2018-02-05T02:53:45.430Z,19.77
2018-02-05T02:56:14.344Z,20.40
2018-02-05T02:58:43.948Z,20.03
2018-02-05T03:01:15.291Z,20.20
2018-02-05T03:03:45.418Z,20.37
2018-02-05T03:06:14.355Z,20.33
2018-02-05T03:08:46.082Z,21.70
2018-02-05T03:11:15.493Z,20.23
2018-02-05T03:13:44.962Z,22.97
2018-02-05T03:16:14.731Z,24.27
2018-02-05T03:18:42.490Z,21.90
2018-02-05T03:21:11.981Z,23.47
2018-02-05T03:23:39.732Z,21.17
2018-02-05T03:26:10.237Z,23.53
2018-02-05T03:28:42.670Z,23.37
2018-02-05T03:31:11.335Z,24.87
2018-02-05T03:33:38.975Z,24.03
2018-02-05T03:36:07.957Z,22.07
2018-02-05T03:38:36.716Z,22.23
2018-02-05T03:41:04.316Z,24.60
2018-02-05T03:43:32.004Z,23.80
2018-02-05T03:46:01.658Z,25.23
2018-02-05T03:48:30.592Z,24.00
2018-02-05T03:50:59.751Z,24.50
2018-02-05T03:53:27.715Z,23.03
2018-02-05T03:55:57.605Z,22.17
2018-02-05T03:58:26.418Z,25.17
2018-02-05T04:00:57.784Z,24.20
2018-02-05T04:03:27.645Z,22.50
2018-02-05T04:05:57.542Z,24.23
2018-02-05T04:08:25.681Z,24.50
2018-02-05T04:10:57.286Z,22.87
2018-02-05T04:13:25.375Z,25.10
2018-02-05T04:15:53.300Z,24.60
2018-02-05T04:18:22.484Z,23.60
2018-02-05T04:20:51.719Z,24.20
2018-02-05T04:23:20.561Z,25.00
2018-02-05T04:25:51.604Z,26.07
2018-02-05T04:28:20.638Z,25.10
2018-02-05T04:30:48.688Z,24.27
2018-02-05T04:33:16.607Z,25.47
2018-02-05T04:35:44.774Z,24.50
2018-02-05T04:38:16.223Z,24.03
2018-02-05T04:40:47.028Z,23.30
2018-02-05T04:43:17.354Z,22.87
2018-02-05T04:45:46.639Z,23.70
2018-02-05T04:48:14.797Z,23.40
2018-02-05T04:50:43.572Z,25.23
2018-02-05T04:53:14.645Z,23.63
2018-02-05T04:55:43.402Z,23.70
2018-02-05T04:58:12.817Z,24.70
2018-02-05T05:00:41.123Z,24.70
2018-02-05T05:03:10.447Z,26.27
2018-02-05T05:05:38.665Z,25.27
2018-02-05T05:08:07.256Z,23.27
2018-02-05T05:10:35.655Z,23.47
2018-02-05T05:13:08.609Z,23.57
2018-02-05T05:15:39.657Z,23.00
2018-02-05T05:18:08.264Z,25.47
2018-02-05T05:20:37.011Z,22.67
2018-02-05T05:23:05.599Z,25.00
2018-02-05T05:25:35.419Z,24.37
2018-02-05T05:28:04.225Z,24.93
2018-02-05T05:30:32.633Z,24.77
2018-02-05T05:35:39.027Z,23.40
2018-02-05T05:38:13.318Z,24.60
2018-02-05T05:40:42.358Z,23.20
2018-02-05T05:43:13.834Z,23.90
2018-02-05T05:45:41.689Z,22.07
2018-02-05T05:48:11.068Z,23.03
2018-02-05T05:50:40.312Z,23.30
2018-02-05T05:53:08.906Z,22.63
2018-02-05T05:55:37.092Z,22.53
2018-02-05T05:58:08.317Z,22.60
2018-02-05T06:00:38.689Z,21.80
2018-02-05T06:03:09.061Z,24.67
2018-02-05T06:05:37.706Z,24.10
2018-02-05T06:08:08.079Z,22.83
2018-02-05T06:10:36.775Z,23.77
2018-02-05T06:13:08.088Z,23.17
2018-02-05T06:15:36.377Z,23.03
2018-02-05T06:18:05.554Z,24.77
2018-02-05T06:20:34.577Z,23.40
2018-02-05T06:23:02.177Z,24.03
2018-02-05T06:25:30.344Z,21.87
2018-02-05T06:27:58.805Z,23.37
2018-02-05T06:30:26.426Z,23.87
2018-02-05T06:32:53.977Z,23.97
2018-02-05T06:35:22.878Z,26.20
2018-02-05T06:37:50.448Z,23.03
2018-02-05T06:40:18.016Z,23.33
2018-02-05T06:42:46.742Z,23.10
2018-02-05T06:45:16.108Z,24.17
2018-02-05T06:47:44.662Z,23.33
2018-02-05T06:53:23.593Z,29.95
2018-02-05T06:55:52.514Z,25.27
2018-02-05T06:58:21.059Z,24.53
2018-02-05T07:00:50.264Z,25.70
2018-02-05T07:03:19.928Z,22.80
2018-02-05T07:05:48.169Z,22.93
2018-02-05T07:08:30.196Z,24.30
2018-02-05T07:10:58.088Z,23.27
2018-02-05T07:13:25.717Z,22.90
2018-02-05T07:15:53.260Z,21.00
2018-02-05T07:18:21.296Z,20.30
2018-02-05T07:20:50.187Z,21.37
2018-02-05T07:23:18.798Z,23.83
2018-02-05T07:28:21.157Z,22.50
2018-02-05T07:30:49.643Z,22.87
2018-02-05T07:33:18.505Z,23.33
2018-02-05T07:35:46.807Z,23.97
2018-02-05T07:38:15.178Z,23.47
2018-02-05T07:40:42.731Z,20.90
2018-02-05T07:43:10.546Z,23.27
2018-02-05T07:45:38.088Z,21.07
2018-02-05T07:48:07.834Z,21.40
2018-02-05T07:50:36.138Z,21.93
2018-02-05T07:53:05.356Z,21.97
2018-02-05T07:55:33.659Z,20.73
2018-02-05T07:58:02.103Z,24.83
2018-02-05T08:00:32.019Z,22.20
2018-02-05T08:02:59.600Z,22.00
2018-02-05T08:05:27.142Z,21.70
2018-02-05T08:07:55.674Z,22.17
2018-02-05T08:10:23.884Z,23.13
2018-02-05T08:12:52.439Z,20.53
2018-02-05T08:15:20.865Z,20.47
2018-02-05T08:17:48.481Z,20.43
2018-02-05T08:20:16.995Z,21.53
2018-02-05T08:22:45.399Z,22.20
2018-02-05T08:25:14.163Z,23.00
2018-02-05T08:27:42.580Z,21.77
2018-02-05T08:30:10.179Z,20.77
2018-02-05T08:32:37.753Z,24.20
2018-02-05T08:35:05.344Z,22.07
2018-02-05T08:37:32.936Z,21.60
2018-02-05T08:40:01.275Z,20.47
2018-02-05T08:42:29.827Z,21.80
2018-02-05T08:44:59.001Z,22.17
2018-02-05T08:47:27.304Z,22.40
2018-02-05T08:49:54.883Z,22.80
2018-02-05T08:52:22.423Z,22.40
2018-02-05T08:54:50.872Z,21.83
2018-02-05T08:57:19.176Z,21.67
2018-02-05T08:59:49.375Z,22.97
2018-02-05T09:02:16.931Z,20.27
2018-02-05T09:04:45.319Z,23.77
2018-02-05T09:07:12.861Z,21.03
2018-02-05T09:09:41.199Z,21.33
2018-02-05T09:12:09.562Z,22.10
2018-02-05T09:14:37.148Z,22.27
2018-02-05T09:17:04.688Z,19.53
2018-02-05T09:19:32.267Z,22.27
2018-02-05T09:21:59.806Z,21.00
2018-02-05T09:24:28.163Z,20.80
2018-02-05T09:26:55.736Z,20.63
2018-02-05T09:29:23.354Z,21.17
2018-02-05T09:31:51.651Z,22.10
2018-02-05T09:34:20.423Z,21.47
2018-02-05T09:36:48.780Z,20.00
2018-02-05T09:39:16.429Z,18.87
2018-02-05T09:41:45.729Z,20.07
2018-02-05T09:44:13.327Z,21.63
2018-02-05T09:46:42.083Z,19.80
2018-02-05T09:49:09.666Z,20.17
2018-02-05T09:51:37.964Z,19.23
2018-02-05T09:54:06.306Z,20.10
2018-02-05T09:56:33.851Z,20.47
2018-02-05T09:59:01.423Z,20.03
2018-02-05T10:01:28.963Z,19.13
2018-02-05T10:03:58.148Z,19.97
2018-02-05T10:06:26.490Z,21.50
2018-02-05T10:08:54.080Z,19.93
2018-02-05T10:11:21.624Z,20.43
2018-02-05T10:13:51.380Z,18.37
2018-02-05T10:16:18.959Z,20.00
2018-02-05T10:18:47.346Z,17.90
2018-02-05T10:21:14.920Z,19.40
2018-02-05T10:23:42.520Z,18.90
2018-02-05T10:26:10.955Z,19.40
2018-02-05T10:28:38.509Z,19.70
2018-02-05T10:31:07.040Z,18.83
2018-02-05T10:33:34.583Z,19.30
2018-02-05T10:36:02.804Z,20.00
2018-02-05T10:38:30.994Z,20.07
2018-02-05T10:40:59.237Z,20.43
2018-02-05T10:43:28.658Z,19.13
2018-02-05T10:45:56.228Z,19.90
2018-02-05T10:48:24.615Z,18.90
2018-02-05T10:50:56.183Z,18.27
2018-02-05T10:53:24.075Z,18.53
2018-02-05T10:55:52.949Z,17.80
2018-02-05T10:58:22.654Z,21.07
2018-02-05T11:00:50.222Z,21.73
2018-02-05T11:03:18.588Z,20.30
2018-02-05T11:05:47.440Z,18.00
2018-02-05T11:08:15.995Z,19.77
2018-02-05T11:10:43.901Z,18.47
2018-02-05T11:13:12.031Z,19.80
2018-02-05T11:15:39.607Z,19.27
2018-02-05T11:18:07.135Z,20.07
2018-02-05T11:20:36.663Z,20.80
2018-02-05T11:23:04.253Z,17.47
2018-02-05T11:25:33.150Z,19.43
2018-02-05T11:28:00.704Z,18.93
2018-02-05T11:30:28.258Z,19.50
2018-02-05T11:32:55.838Z,20.57
2018-02-05T11:35:24.195Z,19.50
2018-02-05T11:37:54.138Z,20.47
2018-02-05T11:40:22.341Z,19.00
2018-02-05T11:42:51.631Z,20.37
2018-02-05T11:45:19.217Z,19.60
2018-02-05T11:47:47.330Z,20.30
2018-02-05T11:50:15.725Z,20.50
2018-02-05T11:52:43.850Z,18.73
2018-02-05T11:55:11.836Z,21.00
2018-02-05T11:57:39.375Z,21.43
2018-02-05T12:00:07.835Z,20.53
2018-02-05T12:02:35.984Z,21.17
2018-02-05T12:05:04.548Z,19.80
2018-02-05T12:07:32.664Z,19.77
2018-02-05T12:10:00.801Z,20.60
2018-02-05T12:12:28.347Z,22.30
2018-02-05T12:14:56.947Z,20.50
2018-02-05T12:17:25.250Z,20.40
2018-02-05T12:19:52.820Z,19.97
2018-02-05T12:22:22.133Z,19.97
2018-02-05T12:24:51.236Z,20.30
2018-02-05T12:27:20.134Z,20.90
2018-02-05T12:29:49.031Z,17.80
2018-02-05T12:32:17.367Z,19.00
2018-02-05T12:34:44.921Z,19.13
2018-02-05T12:37:12.503Z,18.80
2018-02-05T12:39:40.983Z,20.23
2018-02-05T12:42:09.331Z,20.20
2018-02-05T12:44:36.884Z,19.50
2018-02-05T12:47:04.463Z,18.63
2018-02-05T12:49:32.559Z,19.83
2018-02-05T12:52:00.145Z,19.47
2018-02-05T12:54:27.705Z,19.63
2018-02-05T12:56:55.976Z,19.30
2018-02-05T12:59:24.305Z,18.90
2018-02-05T13:01:53.045Z,19.00
2018-02-05T13:04:23.152Z,19.40
2018-02-05T13:06:52.329Z,19.00
2018-02-05T13:09:19.956Z,20.53
2018-02-05T13:11:47.559Z,18.50
2018-02-05T13:14:16.037Z,17.50
2018-02-05T13:16:43.663Z,17.37
2018-02-05T13:19:12.982Z,18.50
2018-02-05T13:21:40.971Z,16.30
2018-02-05T13:24:11.065Z,16.67
2018-02-05T13:26:39.712Z,17.07
2018-02-05T13:29:08.019Z,16.70
2018-02-05T13:31:35.619Z,17.63
2018-02-05T13:34:04.164Z,15.63
2018-02-05T13:36:34.163Z,17.80
2018-02-05T13:39:02.493Z,17.53
2018-02-05T13:41:32.600Z,17.37
2018-02-05T13:44:00.168Z,17.50
2018-02-05T13:46:27.761Z,18.57
2018-02-05T13:48:55.926Z,17.10
2018-02-05T13:51:23.541Z,16.27
2018-02-05T13:53:51.150Z,16.57
2018-02-05T13:56:19.693Z,17.37
2018-02-05T13:58:48.046Z,19.20
2018-02-05T14:01:15.633Z,18.30
2018-02-05T14:03:44.381Z,19.50
2018-02-05T14:06:12.741Z,17.50
2018-02-05T14:08:40.283Z,20.30
2018-02-05T14:11:08.677Z,20.17
2018-02-05T14:13:38.156Z,20.17
2018-02-05T14:16:05.755Z,21.13
2018-02-05T14:18:33.331Z,22.47
2018-02-05T14:21:01.427Z,20.77
2018-02-05T14:23:29.675Z,21.00
2018-02-05T14:25:58.547Z,21.17
2018-02-05T14:28:26.438Z,22.30
2018-02-05T14:30:54.783Z,22.40
2018-02-05T14:33:22.994Z,20.30
2018-02-05T14:35:50.567Z,19.97
2018-02-05T14:38:18.947Z,21.67
2018-02-05T14:40:47.487Z,18.93
2018-02-05T14:43:15.032Z,20.63
2018-02-05T14:45:42.616Z,21.03
2018-02-05T14:48:10.840Z,19.90
2018-02-05T14:50:39.187Z,19.50
2018-02-05T14:53:08.391Z,21.30
2018-02-05T14:55:36.818Z,20.47
2018-02-05T14:58:05.913Z,20.77
2018-02-05T15:00:34.144Z,18.87
2018-02-05T15:03:02.492Z,19.67
2018-02-05T15:05:30.095Z,19.30
2018-02-05T15:07:58.207Z,18.90
2018-02-05T15:10:26.105Z,20.50
2018-02-05T15:12:53.648Z,21.40
2018-02-05T15:15:21.242Z,20.40
2018-02-05T15:17:49.571Z,21.97
2018-02-05T15:20:17.947Z,22.10
2018-02-05T15:22:45.489Z,20.90
2018-02-05T15:25:13.120Z,19.40
2018-02-05T15:27:41.489Z,22.57
2018-02-05T15:30:09.119Z,22.67
2018-02-05T15:32:36.670Z,19.43
2018-02-05T15:35:05.819Z,21.70
2018-02-05T15:37:33.380Z,19.83
2018-02-05T15:40:00.966Z,21.93
2018-02-05T15:42:29.119Z,20.77
2018-02-05T15:44:57.526Z,20.73
2018-02-05T15:47:25.062Z,19.33
2018-02-05T15:49:53.438Z,18.73
2018-02-05T15:52:21.005Z,20.63
2018-02-05T15:54:48.610Z,18.90
2018-02-05T15:57:16.156Z,19.60
2018-02-05T15:59:43.743Z,18.00
2018-02-05T16:02:11.320Z,19.10
2018-02-05T16:04:39.293Z,18.27
2018-02-05T16:07:06.842Z,19.60
2018-02-05T16:09:35.270Z,18.40
2018-02-05T16:12:02.815Z,22.30
2018-02-05T16:14:30.394Z,20.03
2018-02-05T16:16:58.589Z,19.80
2018-02-05T16:19:26.175Z,19.97
2018-02-05T16:21:54.588Z,18.63
2018-02-05T16:24:22.967Z,21.73
2018-02-05T16:26:57.442Z,22.87
2018-02-05T16:29:26.515Z,19.17
2018-02-05T16:31:55.833Z,19.43
2018-02-05T16:34:24.268Z,19.13
2018-02-05T16:36:51.795Z,17.93
2018-02-05T16:39:19.852Z,18.13
2018-02-05T16:41:48.311Z,18.60
2018-02-05T16:44:16.367Z,18.80
2018-02-05T16:46:44.689Z,16.70
2018-02-05T16:49:13.436Z,17.67
2018-02-05T16:51:42.232Z,17.70
2018-02-05T16:54:10.445Z,18.23
2018-02-05T16:56:38.810Z,19.80
2018-02-05T16:59:06.391Z,18.70
2018-02-05T17:01:34.748Z,17.67
2018-02-05T17:04:02.347Z,16.77
2018-02-05T17:06:30.762Z,17.83
2018-02-05T17:08:58.350Z,18.43
2018-02-05T17:11:25.986Z,19.13
2018-02-05T17:13:54.774Z,17.90
2018-02-05T17:16:23.049Z,19.27
2018-02-05T17:18:50.633Z,19.17
2018-02-05T17:21:19.192Z,18.63
2018-02-05T17:23:47.529Z,17.57
2018-02-05T17:26:15.933Z,19.10
2018-02-05T17:28:44.425Z,20.10
2018-02-05T17:31:12.766Z,18.90
2018-02-05T17:33:40.313Z,19.70
2018-02-05T17:36:08.722Z,20.77
2018-02-05T17:38:38.005Z,18.87
2018-02-05T17:41:06.188Z,19.50
2018-02-05T17:43:33.748Z,18.50
2018-02-05T17:46:01.340Z,19.50
2018-02-05T17:48:31.642Z,19.33
2018-02-05T17:50:59.224Z,18.83
2018-02-05T17:53:28.735Z,20.93
2018-02-05T17:55:56.353Z,19.30
2018-02-05T17:58:25.937Z,19.37
2018-02-05T18:00:54.360Z,18.57
2018-02-05T18:03:22.788Z,20.17
2018-02-05T18:05:50.441Z,18.53
2018-02-05T18:08:18.078Z,20.27
2018-02-05T18:10:45.706Z,20.03
2018-02-05T18:13:13.227Z,19.97
2018-02-05T18:15:41.759Z,19.73
2018-02-05T18:18:09.336Z,19.90
2018-02-05T18:20:37.183Z,21.07
2018-02-05T18:23:04.739Z,21.07
2018-02-05T18:25:33.557Z,21.20
2018-02-05T18:28:01.122Z,19.30
2018-02-05T18:30:28.705Z,20.90
2018-02-05T18:32:56.910Z,21.17
2018-02-05T18:35:24.503Z,20.67
2018-02-05T18:37:57.070Z,19.03
2018-02-05T18:40:25.204Z,21.27
2018-02-05T18:42:53.656Z,20.70
2018-02-05T18:45:22.795Z,22.93
2018-02-05T18:47:51.267Z,22.80
2018-02-05T18:50:19.498Z,23.37
2018-02-05T18:52:48.304Z,22.37
2018-02-05T18:55:16.467Z,21.23
2018-02-05T18:57:44.835Z,22.80
2018-02-05T19:00:24.427Z,22.03
2018-02-05T19:02:51.983Z,23.50
2018-02-05T19:05:20.323Z,22.37
2018-02-05T19:07:48.612Z,23.80
2018-02-05T19:10:16.200Z,22.33
2018-02-05T19:12:43.770Z,21.23
2018-02-05T19:15:12.678Z,21.67
2018-02-05T19:17:43.072Z,20.17
2018-02-05T19:20:12.392Z,21.10
2018-02-05T19:22:40.654Z,19.37
2018-02-05T19:25:09.047Z,20.47
2018-02-05T19:27:37.123Z,19.80
2018-02-05T19:30:06.097Z,20.97
2018-02-05T19:32:35.274Z,18.90
2018-02-05T19:35:02.872Z,19.67
2018-02-05T19:37:31.447Z,19.63
2018-02-05T19:40:00.760Z,17.37
2018-02-05T19:42:28.366Z,17.03
2018-02-05T19:44:56.813Z,19.60
2018-02-05T19:47:25.331Z,18.60
2018-02-05T19:49:53.774Z,19.00
2018-02-05T19:52:22.034Z,21.27
2018-02-05T19:54:51.718Z,20.07
2018-02-05T19:57:19.310Z,19.97
2018-02-05T19:59:46.946Z,18.93
2018-02-05T20:02:15.354Z,20.67
2018-02-05T20:04:43.328Z,21.90
2018-02-05T20:07:14.776Z,21.30
2018-02-05T20:09:42.409Z,19.73
2018-02-05T20:12:10.034Z,19.07
2018-02-05T20:14:37.701Z,19.13
2018-02-05T20:17:05.242Z,20.50
2018-02-05T20:19:32.854Z,19.00
2018-02-05T20:22:02.520Z,20.80
2018-02-05T20:24:30.107Z,16.83
2018-02-05T20:26:58.218Z,17.87
2018-02-05T20:29:26.645Z,18.80
2018-02-05T20:31:56.486Z,20.17
2018-02-05T20:34:25.324Z,18.60
2018-02-05T20:36:54.051Z,19.37
2018-02-05T20:39:22.499Z,18.07
2018-02-05T20:41:50.603Z,19.80
2018-02-05T20:44:19.598Z,19.97
2018-02-05T20:46:48.009Z,19.00
2018-02-05T20:49:16.406Z,20.50
2018-02-05T20:51:43.973Z,17.97
2018-02-05T20:54:11.580Z,20.20
2018-02-05T20:56:39.170Z,19.40
2018-02-05T20:59:08.493Z,20.07
2018-02-05T21:01:36.803Z,19.07
2018-02-05T21:04:04.962Z,20.83
2018-02-05T21:06:35.264Z,19.10
2018-02-05T21:09:07.437Z,20.40
2018-02-05T21:11:37.559Z,18.03
2018-02-05T21:14:05.176Z,20.20
2018-02-05T21:16:34.321Z,19.43
2018-02-05T21:19:01.911Z,18.93
2018-02-05T21:21:29.517Z,19.80
2018-02-05T21:23:57.257Z,19.03
2018-02-05T21:26:24.839Z,18.40
2018-02-05T21:28:52.454Z,17.70
2018-02-05T21:31:20.067Z,18.20
2018-02-05T21:33:48.414Z,19.13
2018-02-05T21:36:15.978Z,20.00
2018-02-05T21:38:43.572Z,18.40
2018-02-05T21:41:12.094Z,18.23
2018-02-05T21:43:41.120Z,19.77
2018-02-05T21:46:08.672Z,19.53
2018-02-05T21:48:37.462Z,18.80
2018-02-05T21:51:06.651Z,20.47
2018-02-05T21:53:34.273Z,20.00
2018-02-05T21:56:02.704Z,18.60
2018-02-05T21:58:30.312Z,19.40
2018-02-05T22:00:58.341Z,16.80
2018-02-05T22:03:25.944Z,17.20
2018-02-05T22:05:54.194Z,17.30
2018-02-05T22:08:22.704Z,19.30
2018-02-05T22:10:51.017Z,17.03
2018-02-05T22:13:19.474Z,18.17
2018-02-05T22:15:47.047Z,18.77
2018-02-05T22:18:15.581Z,19.57
2018-02-05T22:20:43.141Z,19.90
2018-02-05T22:23:11.484Z,19.00
2018-02-05T22:25:39.794Z,18.40
2018-02-05T22:28:07.383Z,18.27
2018-02-05T22:30:34.942Z,19.40
2018-02-05T22:33:02.515Z,18.60
2018-02-05T22:35:30.772Z,17.40
2018-02-05T22:38:06.475Z,16.63
2018-02-05T22:40:35.175Z,17.80
2018-02-05T22:43:03.556Z,17.47
2018-02-05T22:45:31.210Z,17.73
2018-02-05T22:48:02.000Z,17.60
2018-02-05T22:50:30.356Z,19.17
2018-02-05T22:53:02.701Z,17.40
2018-02-05T22:55:31.128Z,17.00
2018-02-05T22:57:59.497Z,18.27
2018-02-05T23:00:27.055Z,17.43
2018-02-05T23:02:55.445Z,18.73
2018-02-05T23:05:22.980Z,17.40
2018-02-05T23:07:50.604Z,18.13
2018-02-05T23:10:18.148Z,17.07
2018-02-05T23:12:46.576Z,19.20
2018-02-05T23:15:19.399Z,18.80
2018-02-05T23:17:50.663Z,17.40
2018-02-05T23:20:20.029Z,17.10
2018-02-05T23:22:49.213Z,15.90
2018-02-05T23:25:16.808Z,16.93
2018-02-05T23:27:45.988Z,17.97
2018-02-05T23:30:19.181Z,16.57
2018-02-05T23:32:49.047Z,15.80
2018-02-05T23:35:16.591Z,16.60
2018-02-05T23:37:45.547Z,17.57
2018-02-05T23:40:14.020Z,15.83
2018-02-05T23:42:41.617Z,15.77
2018-02-05T23:45:10.652Z,16.30
2018-02-05T23:47:39.322Z,17.40
2018-02-05T23:50:09.030Z,15.00
2018-02-05T23:52:37.550Z,17.27
2018-02-05T23:55:06.636Z,16.40
2018-02-05T23:57:34.225Z,16.30
